sensor_id;sensor_type;location;lat;lon;timestamp;P1;durP1;ratioP1;P2;durP2;ratioP2
37267;SDS011;23154;52.542;13.362;2023-05-02T00:00:19;13.73;;;4.55;;
37267;SDS011;23154;52.542;13.362;2023-05-02T00:02:45;13.75;;;4.80;;
37267;SDS011;23154;52.542;13.362;2023-05-02T00:05:11;15.27;;;4.55;;
37267;SDS011;23154;52.542;13.362;2023-05-02T00:07:37;12.07;;;3.88;;
37267;SDS011;23154;52.542;13.362;2023-05-02T00:10:03;14.77;;;4.57;;
37267;SDS011;23154;52.542;13.362;2023-05-02T00:12:31;16.70;;;4.25;;
37267;SDS011;23154;52.542;13.362;2023-05-02T00:14:57;13.05;;;4.40;;
37267;SDS011;23154;52.542;13.362;2023-05-02T00:17:24;16.77;;;4.60;;
37267;SDS011;23154;52.542;13.362;2023-05-02T00:19:50;13.60;;;4.18;;
37267;SDS011;23154;52.542;13.362;2023-05-02T00:22:16;13.63;;;4.25;;
37267;SDS011;23154;52.542;13.362;2023-05-02T00:24:42;13.95;;;4.25;;
37267;SDS011;23154;52.542;13.362;2023-05-02T00:27:08;15.85;;;4.50;;
37267;SDS011;23154;52.542;13.362;2023-05-02T00:29:34;12.93;;;4.35;;
37267;SDS011;23154;52.542;13.362;2023-05-02T00:32:01;15.23;;;4.35;;
37267;SDS011;23154;52.542;13.362;2023-05-02T00:34:30;14.02;;;4.50;;
37267;SDS011;23154;52.542;13.362;2023-05-02T00:36:56;14.88;;;5.03;;
37267;SDS011;23154;52.542;13.362;2023-05-02T00:39:22;10.63;;;3.63;;
37267;SDS011;23154;52.542;13.362;2023-05-02T00:41:48;14.50;;;4.13;;
37267;SDS011;23154;52.542;13.362;2023-05-02T00:44:14;12.30;;;4.15;;
37267;SDS011;23154;52.542;13.362;2023-05-02T00:46:40;13.00;;;4.05;;
37267;SDS011;23154;52.542;13.362;2023-05-02T00:49:07;12.75;;;3.90;;
37267;SDS011;23154;52.542;13.362;2023-05-02T00:51:34;13.20;;;4.22;;
37267;SDS011;23154;52.542;13.362;2023-05-02T00:54:00;14.57;;;3.70;;
37267;SDS011;23154;52.542;13.362;2023-05-02T00:56:26;12.73;;;3.85;;
37267;SDS011;23154;52.542;13.362;2023-05-02T00:58:52;15.35;;;4.10;;
37267;SDS011;23154;52.542;13.362;2023-05-02T01:04:00;11.35;;;4.00;;
37267;SDS011;23154;52.542;13.362;2023-05-02T01:14:17;11.40;;;3.95;;
37267;SDS011;23154;52.542;13.362;2023-05-02T01:16:45;14.05;;;4.35;;
37267;SDS011;23154;52.542;13.362;2023-05-02T01:19:12;16.48;;;3.90;;
37267;SDS011;23154;52.542;13.362;2023-05-02T01:21:39;11.77;;;3.65;;
37267;SDS011;23154;52.542;13.362;2023-05-02T01:26:38;13.38;;;4.40;;
37267;SDS011;23154;52.542;13.362;2023-05-02T01:29:08;15.57;;;3.90;;
37267;SDS011;23154;52.542;13.362;2023-05-02T01:31:35;12.38;;;3.95;;
37267;SDS011;23154;52.542;13.362;2023-05-02T01:34:03;11.50;;;3.97;;
37267;SDS011;23154;52.542;13.362;2023-05-02T01:36:30;13.65;;;3.78;;
37267;SDS011;23154;52.542;13.362;2023-05-02T01:38:57;12.38;;;3.78;;
37267;SDS011;23154;52.542;13.362;2023-05-02T01:41:28;15.88;;;4.38;;
37267;SDS011;23154;52.542;13.362;2023-05-02T01:43:55;11.82;;;4.03;;
37267;SDS011;23154;52.542;13.362;2023-05-02T01:46:22;13.20;;;3.70;;
37267;SDS011;23154;52.542;13.362;2023-05-02T01:48:49;11.60;;;3.92;;
37267;SDS011;23154;52.542;13.362;2023-05-02T01:51:16;13.68;;;4.00;;
37267;SDS011;23154;52.542;13.362;2023-05-02T01:53:43;12.00;;;3.75;;
37267;SDS011;23154;52.542;13.362;2023-05-02T01:56:11;13.02;;;3.35;;
37267;SDS011;23154;52.542;13.362;2023-05-02T01:58:37;11.93;;;3.55;;
37267;SDS011;23154;52.542;13.362;2023-05-02T02:01:04;12.25;;;4.10;;
37267;SDS011;23154;52.542;13.362;2023-05-02T02:03:30;11.75;;;3.92;;
37267;SDS011;23154;52.542;13.362;2023-05-02T02:05:56;11.77;;;3.70;;
37267;SDS011;23154;52.542;13.362;2023-05-02T02:08:23;13.80;;;4.53;;
37267;SDS011;23154;52.542;13.362;2023-05-02T02:10:50;12.30;;;3.35;;
37267;SDS011;23154;52.542;13.362;2023-05-02T02:13:37;11.32;;;3.40;;
37267;SDS011;23154;52.542;13.362;2023-05-02T02:16:04;10.82;;;3.90;;
37267;SDS011;23154;52.542;13.362;2023-05-02T02:18:31;10.68;;;3.33;;
37267;SDS011;23154;52.542;13.362;2023-05-02T02:21:00;13.57;;;3.92;;
37267;SDS011;23154;52.542;13.362;2023-05-02T02:23:27;11.95;;;3.80;;
37267;SDS011;23154;52.542;13.362;2023-05-02T02:25:54;13.02;;;3.63;;
37267;SDS011;23154;52.542;13.362;2023-05-02T02:28:20;11.68;;;3.72;;
37267;SDS011;23154;52.542;13.362;2023-05-02T02:30:46;11.57;;;3.70;;
37267;SDS011;23154;52.542;13.362;2023-05-02T02:33:12;10.25;;;3.22;;
37267;SDS011;23154;52.542;13.362;2023-05-02T02:35:42;11.45;;;3.35;;
37267;SDS011;23154;52.542;13.362;2023-05-02T02:38:10;13.80;;;3.88;;
37267;SDS011;23154;52.542;13.362;2023-05-02T02:40:40;9.73;;;3.38;;
37267;SDS011;23154;52.542;13.362;2023-05-02T02:46:16;14.23;;;3.72;;
37267;SDS011;23154;52.542;13.362;2023-05-02T02:49:08;16.65;;;4.20;;
37267;SDS011;23154;52.542;13.362;2023-05-02T02:51:38;15.10;;;4.72;;
37267;SDS011;23154;52.542;13.362;2023-05-02T02:54:13;15.73;;;5.40;;
37267;SDS011;23154;52.542;13.362;2023-05-02T02:56:46;18.02;;;6.43;;
37267;SDS011;23154;52.542;13.362;2023-05-02T03:01:47;33.13;;;11.52;;
37267;SDS011;23154;52.542;13.362;2023-05-02T03:04:17;35.53;;;13.82;;
37267;SDS011;23154;52.542;13.362;2023-05-02T03:06:44;34.15;;;11.35;;
37267;SDS011;23154;52.542;13.362;2023-05-02T03:09:13;27.55;;;10.00;;
37267;SDS011;23154;52.542;13.362;2023-05-02T03:11:42;25.33;;;7.50;;
37267;SDS011;23154;52.542;13.362;2023-05-02T03:14:09;17.08;;;4.97;;
37267;SDS011;23154;52.542;13.362;2023-05-02T03:16:38;17.60;;;4.28;;
37267;SDS011;23154;52.542;13.362;2023-05-02T03:19:05;12.63;;;3.55;;
37267;SDS011;23154;52.542;13.362;2023-05-02T03:21:31;14.88;;;3.95;;
37267;SDS011;23154;52.542;13.362;2023-05-02T03:24:01;12.20;;;3.28;;
37267;SDS011;23154;52.542;13.362;2023-05-02T03:26:27;9.38;;;2.80;;
37267;SDS011;23154;52.542;13.362;2023-05-02T03:28:54;8.68;;;2.65;;
37267;SDS011;23154;52.542;13.362;2023-05-02T03:31:21;13.07;;;3.17;;
37267;SDS011;23154;52.542;13.362;2023-05-02T03:33:47;9.88;;;2.60;;
37267;SDS011;23154;52.542;13.362;2023-05-02T03:36:13;7.90;;;2.90;;
37267;SDS011;23154;52.542;13.362;2023-05-02T03:38:40;9.55;;;2.78;;
37267;SDS011;23154;52.542;13.362;2023-05-02T03:41:06;6.63;;;2.53;;
37267;SDS011;23154;52.542;13.362;2023-05-02T03:43:32;8.20;;;2.67;;
37267;SDS011;23154;52.542;13.362;2023-05-02T03:46:03;9.23;;;2.70;;
37267;SDS011;23154;52.542;13.362;2023-05-02T03:48:30;9.68;;;3.08;;
37267;SDS011;23154;52.542;13.362;2023-05-02T03:50:56;8.77;;;2.95;;
37267;SDS011;23154;52.542;13.362;2023-05-02T03:53:22;10.13;;;3.00;;
37267;SDS011;23154;52.542;13.362;2023-05-02T03:55:48;9.15;;;3.03;;
37267;SDS011;23154;52.542;13.362;2023-05-02T03:58:14;9.48;;;2.95;;
37267;SDS011;23154;52.542;13.362;2023-05-02T04:00:40;10.45;;;3.50;;
37267;SDS011;23154;52.542;13.362;2023-05-02T04:03:07;10.68;;;3.42;;
37267;SDS011;23154;52.542;13.362;2023-05-02T04:05:33;11.80;;;3.25;;
37267;SDS011;23154;52.542;13.362;2023-05-02T04:07:59;12.70;;;3.03;;
37267;SDS011;23154;52.542;13.362;2023-05-02T04:10:26;12.65;;;3.53;;
37267;SDS011;23154;52.542;13.362;2023-05-02T04:12:52;10.30;;;3.00;;
37267;SDS011;23154;52.542;13.362;2023-05-02T04:15:18;11.98;;;3.20;;
37267;SDS011;23154;52.542;13.362;2023-05-02T04:17:44;9.43;;;3.22;;
37267;SDS011;23154;52.542;13.362;2023-05-02T04:20:11;8.90;;;2.90;;
37267;SDS011;23154;52.542;13.362;2023-05-02T04:22:37;11.75;;;2.85;;
37267;SDS011;23154;52.542;13.362;2023-05-02T04:25:06;13.98;;;3.40;;
37267;SDS011;23154;52.542;13.362;2023-05-02T04:27:32;12.52;;;3.22;;
37267;SDS011;23154;52.542;13.362;2023-05-02T04:29:58;10.35;;;3.25;;
37267;SDS011;23154;52.542;13.362;2023-05-02T04:32:24;12.05;;;3.13;;
37267;SDS011;23154;52.542;13.362;2023-05-02T04:34:51;9.38;;;3.10;;
37267;SDS011;23154;52.542;13.362;2023-05-02T04:37:17;11.30;;;3.15;;
37267;SDS011;23154;52.542;13.362;2023-05-02T04:39:43;9.15;;;2.80;;
37267;SDS011;23154;52.542;13.362;2023-05-02T04:42:09;11.88;;;2.85;;
37267;SDS011;23154;52.542;13.362;2023-05-02T04:44:35;10.45;;;2.90;;
37267;SDS011;23154;52.542;13.362;2023-05-02T04:47:02;11.10;;;2.67;;
37267;SDS011;23154;52.542;13.362;2023-05-02T04:49:28;11.00;;;2.88;;
37267;SDS011;23154;52.542;13.362;2023-05-02T04:51:54;10.18;;;3.13;;
37267;SDS011;23154;52.542;13.362;2023-05-02T04:54:20;9.65;;;2.95;;
37267;SDS011;23154;52.542;13.362;2023-05-02T04:56:47;5.95;;;2.33;;
37267;SDS011;23154;52.542;13.362;2023-05-02T04:59:13;7.80;;;2.90;;
37267;SDS011;23154;52.542;13.362;2023-05-02T05:01:39;8.73;;;2.63;;
37267;SDS011;23154;52.542;13.362;2023-05-02T05:04:05;9.07;;;2.58;;
37267;SDS011;23154;52.542;13.362;2023-05-02T05:06:31;12.95;;;3.05;;
37267;SDS011;23154;52.542;13.362;2023-05-02T05:08:57;9.23;;;2.90;;
37267;SDS011;23154;52.542;13.362;2023-05-02T05:11:24;8.25;;;2.40;;
37267;SDS011;23154;52.542;13.362;2023-05-02T05:13:50;8.73;;;2.65;;
37267;SDS011;23154;52.542;13.362;2023-05-02T05:16:16;6.93;;;2.60;;
37267;SDS011;23154;52.542;13.362;2023-05-02T05:18:42;7.97;;;2.88;;
37267;SDS011;23154;52.542;13.362;2023-05-02T05:21:09;9.75;;;2.92;;
37267;SDS011;23154;52.542;13.362;2023-05-02T05:23:35;6.95;;;2.53;;
37267;SDS011;23154;52.542;13.362;2023-05-02T05:26:11;9.35;;;2.78;;
37267;SDS011;23154;52.542;13.362;2023-05-02T05:28:37;10.10;;;3.22;;
37267;SDS011;23154;52.542;13.362;2023-05-02T05:31:07;9.75;;;2.90;;
37267;SDS011;23154;52.542;13.362;2023-05-02T05:33:33;13.15;;;2.80;;
37267;SDS011;23154;52.542;13.362;2023-05-02T05:36:06;11.43;;;3.25;;
37267;SDS011;23154;52.542;13.362;2023-05-02T05:38:32;11.38;;;3.55;;
37267;SDS011;23154;52.542;13.362;2023-05-02T05:40:58;10.20;;;3.05;;
37267;SDS011;23154;52.542;13.362;2023-05-02T05:43:25;9.25;;;3.20;;
37267;SDS011;23154;52.542;13.362;2023-05-02T05:45:51;9.45;;;2.78;;
37267;SDS011;23154;52.542;13.362;2023-05-02T05:48:17;10.63;;;3.00;;
37267;SDS011;23154;52.542;13.362;2023-05-02T05:50:43;8.77;;;2.95;;
37267;SDS011;23154;52.542;13.362;2023-05-02T05:53:10;9.07;;;3.05;;
37267;SDS011;23154;52.542;13.362;2023-05-02T05:55:36;10.50;;;3.20;;
37267;SDS011;23154;52.542;13.362;2023-05-02T05:58:03;8.63;;;2.85;;
37267;SDS011;23154;52.542;13.362;2023-05-02T06:00:29;11.35;;;3.33;;
37267;SDS011;23154;52.542;13.362;2023-05-02T06:02:55;9.50;;;3.13;;
37267;SDS011;23154;52.542;13.362;2023-05-02T06:05:21;11.27;;;3.55;;
37267;SDS011;23154;52.542;13.362;2023-05-02T06:07:47;14.15;;;3.72;;
37267;SDS011;23154;52.542;13.362;2023-05-02T06:10:13;13.60;;;3.90;;
37267;SDS011;23154;52.542;13.362;2023-05-02T06:12:39;15.98;;;4.20;;
37267;SDS011;23154;52.542;13.362;2023-05-02T06:15:05;11.55;;;3.70;;
37267;SDS011;23154;52.542;13.362;2023-05-02T06:17:31;13.90;;;4.25;;
37267;SDS011;23154;52.542;13.362;2023-05-02T06:19:57;13.05;;;4.07;;
37267;SDS011;23154;52.542;13.362;2023-05-02T06:22:23;14.02;;;4.40;;
37267;SDS011;23154;52.542;13.362;2023-05-02T06:24:49;17.95;;;4.50;;
37267;SDS011;23154;52.542;13.362;2023-05-02T06:27:15;13.85;;;4.15;;
37267;SDS011;23154;52.542;13.362;2023-05-02T06:29:41;14.50;;;4.55;;
37267;SDS011;23154;52.542;13.362;2023-05-02T06:32:07;15.88;;;4.85;;
37267;SDS011;23154;52.542;13.362;2023-05-02T06:34:34;19.15;;;5.35;;
37267;SDS011;23154;52.542;13.362;2023-05-02T06:37:00;17.88;;;5.65;;
37267;SDS011;23154;52.542;13.362;2023-05-02T06:39:26;17.38;;;5.88;;
37267;SDS011;23154;52.542;13.362;2023-05-02T06:41:55;18.50;;;5.85;;
37267;SDS011;23154;52.542;13.362;2023-05-02T06:44:22;20.13;;;5.47;;
37267;SDS011;23154;52.542;13.362;2023-05-02T06:46:48;17.10;;;6.18;;
37267;SDS011;23154;52.542;13.362;2023-05-02T06:49:14;18.92;;;5.70;;
37267;SDS011;23154;52.542;13.362;2023-05-02T06:51:40;19.30;;;5.90;;
37267;SDS011;23154;52.542;13.362;2023-05-02T06:54:07;16.48;;;5.25;;
37267;SDS011;23154;52.542;13.362;2023-05-02T06:56:33;16.65;;;4.60;;
37267;SDS011;23154;52.542;13.362;2023-05-02T06:58:59;16.88;;;5.10;;
37267;SDS011;23154;52.542;13.362;2023-05-02T07:01:25;16.33;;;5.38;;
37267;SDS011;23154;52.542;13.362;2023-05-02T07:03:51;14.85;;;4.90;;
37267;SDS011;23154;52.542;13.362;2023-05-02T07:06:18;14.50;;;5.50;;
37267;SDS011;23154;52.542;13.362;2023-05-02T07:08:44;16.02;;;4.63;;
37267;SDS011;23154;52.542;13.362;2023-05-02T07:11:10;16.83;;;4.78;;
37267;SDS011;23154;52.542;13.362;2023-05-02T07:13:36;15.40;;;4.60;;
37267;SDS011;23154;52.542;13.362;2023-05-02T07:16:02;15.18;;;4.57;;
37267;SDS011;23154;52.542;13.362;2023-05-02T07:18:28;14.45;;;4.55;;
37267;SDS011;23154;52.542;13.362;2023-05-02T07:20:54;15.23;;;4.55;;
37267;SDS011;23154;52.542;13.362;2023-05-02T07:23:20;15.40;;;4.93;;
37267;SDS011;23154;52.542;13.362;2023-05-02T07:25:47;14.02;;;4.10;;
37267;SDS011;23154;52.542;13.362;2023-05-02T07:28:13;14.95;;;3.97;;
37267;SDS011;23154;52.542;13.362;2023-05-02T07:30:39;14.80;;;4.28;;
37267;SDS011;23154;52.542;13.362;2023-05-02T07:33:06;15.80;;;4.55;;
37267;SDS011;23154;52.542;13.362;2023-05-02T07:35:32;14.55;;;4.05;;
37267;SDS011;23154;52.542;13.362;2023-05-02T07:37:58;11.02;;;3.67;;
37267;SDS011;23154;52.542;13.362;2023-05-02T07:40:24;12.38;;;3.90;;
37267;SDS011;23154;52.542;13.362;2023-05-02T07:42:50;15.60;;;4.18;;
37267;SDS011;23154;52.542;13.362;2023-05-02T07:45:16;10.88;;;3.25;;
37267;SDS011;23154;52.542;13.362;2023-05-02T07:47:42;11.95;;;3.97;;
37267;SDS011;23154;52.542;13.362;2023-05-02T07:50:09;12.65;;;3.78;;
37267;SDS011;23154;52.542;13.362;2023-05-02T07:52:35;13.65;;;3.80;;
37267;SDS011;23154;52.542;13.362;2023-05-02T07:55:01;11.50;;;3.28;;
37267;SDS011;23154;52.542;13.362;2023-05-02T07:57:27;11.15;;;3.55;;
37267;SDS011;23154;52.542;13.362;2023-05-02T07:59:53;10.88;;;3.50;;
37267;SDS011;23154;52.542;13.362;2023-05-02T08:02:21;11.10;;;3.38;;
37267;SDS011;23154;52.542;13.362;2023-05-02T08:04:48;11.93;;;3.60;;
37267;SDS011;23154;52.542;13.362;2023-05-02T08:07:14;12.73;;;3.85;;
37267;SDS011;23154;52.542;13.362;2023-05-02T08:09:40;10.63;;;3.55;;
37267;SDS011;23154;52.542;13.362;2023-05-02T08:12:06;12.57;;;3.05;;
37267;SDS011;23154;52.542;13.362;2023-05-02T08:14:32;9.88;;;3.72;;
37267;SDS011;23154;52.542;13.362;2023-05-02T08:16:59;11.35;;;3.10;;
37267;SDS011;23154;52.542;13.362;2023-05-02T08:19:25;11.50;;;3.22;;
37267;SDS011;23154;52.542;13.362;2023-05-02T08:21:54;13.05;;;3.60;;
37267;SDS011;23154;52.542;13.362;2023-05-02T08:24:20;12.27;;;3.85;;
37267;SDS011;23154;52.542;13.362;2023-05-02T08:26:46;13.80;;;3.63;;
37267;SDS011;23154;52.542;13.362;2023-05-02T08:29:12;13.95;;;3.70;;
37267;SDS011;23154;52.542;13.362;2023-05-02T08:31:39;13.18;;;3.63;;
37267;SDS011;23154;52.542;13.362;2023-05-02T08:34:05;16.80;;;4.13;;
37267;SDS011;23154;52.542;13.362;2023-05-02T08:36:31;14.70;;;4.40;;
37267;SDS011;23154;52.542;13.362;2023-05-02T08:38:57;11.82;;;3.70;;
37267;SDS011;23154;52.542;13.362;2023-05-02T08:41:23;11.30;;;3.25;;
37267;SDS011;23154;52.542;13.362;2023-05-02T08:43:50;10.15;;;3.00;;
37267;SDS011;23154;52.542;13.362;2023-05-02T08:46:17;13.48;;;3.15;;
37267;SDS011;23154;52.542;13.362;2023-05-02T08:48:44;11.07;;;3.00;;
37267;SDS011;23154;52.542;13.362;2023-05-02T08:53:39;9.52;;;3.20;;
37267;SDS011;23154;52.542;13.362;2023-05-02T08:56:06;10.52;;;3.10;;
37267;SDS011;23154;52.542;13.362;2023-05-02T08:58:32;9.65;;;3.15;;
37267;SDS011;23154;52.542;13.362;2023-05-02T09:00:59;11.00;;;3.45;;
37267;SDS011;23154;52.542;13.362;2023-05-02T09:03:34;12.27;;;3.45;;
37267;SDS011;23154;52.542;13.362;2023-05-02T09:08:29;11.05;;;3.15;;
37267;SDS011;23154;52.542;13.362;2023-05-02T09:10:55;11.38;;;3.17;;
37267;SDS011;23154;52.542;13.362;2023-05-02T09:13:31;11.38;;;3.10;;
37267;SDS011;23154;52.542;13.362;2023-05-02T09:15:59;8.35;;;2.67;;
37267;SDS011;23154;52.542;13.362;2023-05-02T09:18:29;11.68;;;3.05;;
37267;SDS011;23154;52.542;13.362;2023-05-02T09:20:56;8.32;;;2.78;;
37267;SDS011;23154;52.542;13.362;2023-05-02T09:23:39;8.00;;;2.47;;
37267;SDS011;23154;52.542;13.362;2023-05-02T09:28:39;9.32;;;2.88;;
37267;SDS011;23154;52.542;13.362;2023-05-02T09:31:09;10.85;;;3.30;;
37267;SDS011;23154;52.542;13.362;2023-05-02T09:36:01;10.45;;;3.30;;
37267;SDS011;23154;52.542;13.362;2023-05-02T09:38:27;10.48;;;3.20;;
37267;SDS011;23154;52.542;13.362;2023-05-02T09:40:54;10.93;;;3.10;;
37267;SDS011;23154;52.542;13.362;2023-05-02T09:43:20;10.52;;;3.25;;
37267;SDS011;23154;52.542;13.362;2023-05-02T09:45:59;9.43;;;2.92;;
37267;SDS011;23154;52.542;13.362;2023-05-02T09:48:26;6.90;;;2.30;;
37267;SDS011;23154;52.542;13.362;2023-05-02T09:50:53;8.35;;;2.70;;
37267;SDS011;23154;52.542;13.362;2023-05-02T09:53:19;8.85;;;2.60;;
37267;SDS011;23154;52.542;13.362;2023-05-02T09:55:46;7.95;;;2.42;;
37267;SDS011;23154;52.542;13.362;2023-05-02T09:58:21;7.47;;;2.50;;
37267;SDS011;23154;52.542;13.362;2023-05-02T10:00:48;7.60;;;2.58;;
37267;SDS011;23154;52.542;13.362;2023-05-02T10:05:45;7.53;;;2.20;;
37267;SDS011;23154;52.542;13.362;2023-05-02T10:08:12;5.97;;;2.15;;
37267;SDS011;23154;52.542;13.362;2023-05-02T10:10:38;7.55;;;2.53;;
37267;SDS011;23154;52.542;13.362;2023-05-02T10:13:06;8.90;;;2.90;;
37267;SDS011;23154;52.542;13.362;2023-05-02T10:15:33;8.82;;;2.75;;
37267;SDS011;23154;52.542;13.362;2023-05-02T10:18:04;12.07;;;3.05;;
37267;SDS011;23154;52.542;13.362;2023-05-02T10:20:33;9.45;;;2.70;;
37267;SDS011;23154;52.542;13.362;2023-05-02T10:23:01;7.63;;;2.15;;
37267;SDS011;23154;52.542;13.362;2023-05-02T10:25:27;7.57;;;2.55;;
37267;SDS011;23154;52.542;13.362;2023-05-02T10:27:55;7.50;;;2.42;;
37267;SDS011;23154;52.542;13.362;2023-05-02T10:30:23;8.73;;;2.85;;
37267;SDS011;23154;52.542;13.362;2023-05-02T10:32:50;6.10;;;1.92;;
37267;SDS011;23154;52.542;13.362;2023-05-02T10:35:17;6.40;;;2.17;;
37267;SDS011;23154;52.542;13.362;2023-05-02T10:37:44;8.93;;;2.35;;
37267;SDS011;23154;52.542;13.362;2023-05-02T10:40:11;7.82;;;2.35;;
37267;SDS011;23154;52.542;13.362;2023-05-02T10:42:38;8.15;;;2.38;;
37267;SDS011;23154;52.542;13.362;2023-05-02T10:47:37;6.38;;;2.50;;
37267;SDS011;23154;52.542;13.362;2023-05-02T10:50:03;7.47;;;2.40;;
37267;SDS011;23154;52.542;13.362;2023-05-02T10:52:32;10.52;;;3.00;;
37267;SDS011;23154;52.542;13.362;2023-05-02T11:00:29;11.70;;;3.20;;
37267;SDS011;23154;52.542;13.362;2023-05-02T11:02:56;13.95;;;3.58;;
37267;SDS011;23154;52.542;13.362;2023-05-02T11:05:22;13.88;;;3.55;;
37267;SDS011;23154;52.542;13.362;2023-05-02T11:07:48;11.38;;;3.60;;
37267;SDS011;23154;52.542;13.362;2023-05-02T11:15:13;16.98;;;4.22;;
37267;SDS011;23154;52.542;13.362;2023-05-02T11:20:25;12.65;;;3.17;;
37267;SDS011;23154;52.542;13.362;2023-05-02T11:22:51;16.48;;;3.75;;
37267;SDS011;23154;52.542;13.362;2023-05-02T11:25:27;12.57;;;3.05;;
37267;SDS011;23154;52.542;13.362;2023-05-02T11:27:54;20.70;;;4.20;;
37267;SDS011;23154;52.542;13.362;2023-05-02T11:30:39;11.52;;;3.08;;
37267;SDS011;23154;52.542;13.362;2023-05-02T11:35:33;10.88;;;2.72;;
37267;SDS011;23154;52.542;13.362;2023-05-02T11:38:00;14.20;;;3.15;;
37267;SDS011;23154;52.542;13.362;2023-05-02T11:40:30;9.35;;;2.53;;
37267;SDS011;23154;52.542;13.362;2023-05-02T11:42:57;9.20;;;2.33;;
37267;SDS011;23154;52.542;13.362;2023-05-02T11:45:33;9.02;;;2.47;;
37267;SDS011;23154;52.542;13.362;2023-05-02T11:48:10;9.38;;;2.40;;
37267;SDS011;23154;52.542;13.362;2023-05-02T11:50:40;9.77;;;2.78;;
37267;SDS011;23154;52.542;13.362;2023-05-02T11:53:10;10.48;;;2.53;;
37267;SDS011;23154;52.542;13.362;2023-05-02T11:55:38;9.98;;;2.50;;
37267;SDS011;23154;52.542;13.362;2023-05-02T11:58:12;8.05;;;2.30;;
37267;SDS011;23154;52.542;13.362;2023-05-02T12:00:39;9.25;;;2.30;;
37267;SDS011;23154;52.542;13.362;2023-05-02T12:03:05;8.38;;;2.17;;
37267;SDS011;23154;52.542;13.362;2023-05-02T12:05:31;7.80;;;2.47;;
37267;SDS011;23154;52.542;13.362;2023-05-02T12:07:57;5.90;;;2.10;;
37267;SDS011;23154;52.542;13.362;2023-05-02T12:10:34;7.35;;;2.10;;
37267;SDS011;23154;52.542;13.362;2023-05-02T12:13:04;10.70;;;2.28;;
37267;SDS011;23154;52.542;13.362;2023-05-02T12:15:30;8.70;;;2.10;;
37267;SDS011;23154;52.542;13.362;2023-05-02T12:17:57;10.48;;;2.53;;
37267;SDS011;23154;52.542;13.362;2023-05-02T12:20:23;7.85;;;2.10;;
37267;SDS011;23154;52.542;13.362;2023-05-02T12:22:50;9.90;;;2.35;;
37267;SDS011;23154;52.542;13.362;2023-05-02T12:25:17;10.90;;;2.53;;
37267;SDS011;23154;52.542;13.362;2023-05-02T12:27:57;13.40;;;2.80;;
37267;SDS011;23154;52.542;13.362;2023-05-02T12:30:29;12.57;;;2.50;;
37267;SDS011;23154;52.542;13.362;2023-05-02T12:32:57;7.43;;;2.30;;
37267;SDS011;23154;52.542;13.362;2023-05-02T12:35:25;14.60;;;2.38;;
37267;SDS011;23154;52.542;13.362;2023-05-02T12:37:52;9.05;;;2.22;;
37267;SDS011;23154;52.542;13.362;2023-05-02T12:40:18;12.60;;;3.08;;
37267;SDS011;23154;52.542;13.362;2023-05-02T12:42:57;9.90;;;2.20;;
37267;SDS011;23154;52.542;13.362;2023-05-02T12:45:25;17.13;;;2.60;;
37267;SDS011;23154;52.542;13.362;2023-05-02T12:47:53;11.45;;;2.45;;
37267;SDS011;23154;52.542;13.362;2023-05-02T12:50:19;18.58;;;3.13;;
37267;SDS011;23154;52.542;13.362;2023-05-02T12:55:15;17.42;;;4.25;;
37267;SDS011;23154;52.542;13.362;2023-05-02T12:57:43;12.25;;;2.80;;
37267;SDS011;23154;52.542;13.362;2023-05-02T13:00:09;15.80;;;3.45;;
37267;SDS011;23154;52.542;13.362;2023-05-02T13:02:36;15.88;;;2.67;;
37267;SDS011;23154;52.542;13.362;2023-05-02T13:05:12;12.10;;;2.60;;
37267;SDS011;23154;52.542;13.362;2023-05-02T13:07:38;11.90;;;2.85;;
37267;SDS011;23154;52.542;13.362;2023-05-02T13:10:04;13.30;;;3.38;;
37267;SDS011;23154;52.542;13.362;2023-05-02T13:12:30;12.68;;;2.65;;
37267;SDS011;23154;52.542;13.362;2023-05-02T13:14:56;10.68;;;2.83;;
37267;SDS011;23154;52.542;13.362;2023-05-02T13:17:22;14.10;;;3.28;;
37267;SDS011;23154;52.542;13.362;2023-05-02T13:19:48;11.30;;;2.75;;
37267;SDS011;23154;52.542;13.362;2023-05-02T13:22:14;8.45;;;2.60;;
37267;SDS011;23154;52.542;13.362;2023-05-02T13:24:40;9.50;;;2.40;;
37267;SDS011;23154;52.542;13.362;2023-05-02T13:27:07;9.90;;;2.58;;
37267;SDS011;23154;52.542;13.362;2023-05-02T13:29:32;12.82;;;3.00;;
37267;SDS011;23154;52.542;13.362;2023-05-02T13:31:58;12.00;;;2.55;;
37267;SDS011;23154;52.542;13.362;2023-05-02T13:34:25;13.18;;;3.20;;
37267;SDS011;23154;52.542;13.362;2023-05-02T13:36:51;10.38;;;2.50;;
37267;SDS011;23154;52.542;13.362;2023-05-02T13:39:17;7.10;;;2.22;;
37267;SDS011;23154;52.542;13.362;2023-05-02T13:41:43;9.52;;;2.60;;
37267;SDS011;23154;52.542;13.362;2023-05-02T13:44:09;8.82;;;2.55;;
37267;SDS011;23154;52.542;13.362;2023-05-02T13:46:35;11.48;;;2.90;;
37267;SDS011;23154;52.542;13.362;2023-05-02T13:49:02;11.07;;;2.80;;
37267;SDS011;23154;52.542;13.362;2023-05-02T13:51:29;9.02;;;3.03;;
37267;SDS011;23154;52.542;13.362;2023-05-02T13:53:58;13.88;;;2.60;;
37267;SDS011;23154;52.542;13.362;2023-05-02T13:56:24;11.82;;;2.92;;
37267;SDS011;23154;52.542;13.362;2023-05-02T13:58:50;12.30;;;3.10;;
37267;SDS011;23154;52.542;13.362;2023-05-02T14:01:16;11.73;;;2.63;;
37267;SDS011;23154;52.542;13.362;2023-05-02T14:03:42;9.30;;;2.70;;
37267;SDS011;23154;52.542;13.362;2023-05-02T14:06:08;11.10;;;2.72;;
37267;SDS011;23154;52.542;13.362;2023-05-02T14:08:34;9.35;;;2.25;;
37267;SDS011;23154;52.542;13.362;2023-05-02T14:11:00;9.10;;;2.28;;
37267;SDS011;23154;52.542;13.362;2023-05-02T14:13:27;11.15;;;2.63;;
37267;SDS011;23154;52.542;13.362;2023-05-02T14:15:53;6.78;;;2.53;;
37267;SDS011;23154;52.542;13.362;2023-05-02T14:18:19;9.38;;;2.47;;
37267;SDS011;23154;52.542;13.362;2023-05-02T14:20:46;10.43;;;2.65;;
37267;SDS011;23154;52.542;13.362;2023-05-02T14:23:12;12.80;;;2.63;;
37267;SDS011;23154;52.542;13.362;2023-05-02T14:25:38;9.82;;;2.58;;
37267;SDS011;23154;52.542;13.362;2023-05-02T14:28:04;8.13;;;2.22;;
37267;SDS011;23154;52.542;13.362;2023-05-02T14:30:30;5.05;;;2.00;;
37267;SDS011;23154;52.542;13.362;2023-05-02T14:32:56;7.63;;;2.05;;
37267;SDS011;23154;52.542;13.362;2023-05-02T14:35:22;9.90;;;2.53;;
37267;SDS011;23154;52.542;13.362;2023-05-02T14:37:48;9.20;;;2.30;;
37267;SDS011;23154;52.542;13.362;2023-05-02T14:40:15;6.70;;;2.00;;
37267;SDS011;23154;52.542;13.362;2023-05-02T14:42:41;8.68;;;2.38;;
37267;SDS011;23154;52.542;13.362;2023-05-02T14:45:09;11.38;;;2.90;;
37267;SDS011;23154;52.542;13.362;2023-05-02T14:47:36;12.77;;;2.45;;
37267;SDS011;23154;52.542;13.362;2023-05-02T14:50:02;9.93;;;2.67;;
37267;SDS011;23154;52.542;13.362;2023-05-02T14:52:29;9.57;;;2.53;;
37267;SDS011;23154;52.542;13.362;2023-05-02T14:54:58;7.35;;;2.10;;
37267;SDS011;23154;52.542;13.362;2023-05-02T14:57:24;10.60;;;3.10;;
37267;SDS011;23154;52.542;13.362;2023-05-02T14:59:51;14.68;;;2.65;;
37267;SDS011;23154;52.542;13.362;2023-05-02T15:02:17;11.00;;;2.40;;
37267;SDS011;23154;52.542;13.362;2023-05-02T15:04:44;10.32;;;1.92;;
37267;SDS011;23154;52.542;13.362;2023-05-02T15:07:11;10.98;;;2.55;;
37267;SDS011;23154;52.542;13.362;2023-05-02T15:09:37;8.63;;;2.25;;
37267;SDS011;23154;52.542;13.362;2023-05-02T15:12:03;10.45;;;2.78;;
37267;SDS011;23154;52.542;13.362;2023-05-02T15:14:30;7.50;;;2.30;;
37267;SDS011;23154;52.542;13.362;2023-05-02T15:16:56;7.57;;;2.40;;